sensor_id;sensor_type;location;lat;lon;timestamp;pressure;altitude;pressure_sealevel;temperature
71564;BMP180;59391;52.504;13.438;2023-03-14T00:00:05;98842.00;;;17.00
71564;BMP180;59391;52.504;13.438;2023-03-14T00:02:31;98852.00;;;17.00
71564;BMP180;59391;52.504;13.438;2023-03-14T00:04:56;98863.00;;;16.90
71564;BMP180;59391;52.504;13.438;2023-03-14T00:07:22;98849.00;;;16.80
71564;BMP180;59391;52.504;13.438;2023-03-14T00:09:50;98853.00;;;16.80
71564;BMP180;59391;52.504;13.438;2023-03-14T00:12:16;98848.00;;;16.80
71564;BMP180;59391;52.504;13.438;2023-03-14T00:14:42;98845.00;;;16.60
71564;BMP180;59391;52.504;13.438;2023-03-14T00:17:09;98846.00;;;16.60
71564;BMP180;59391;52.504;13.438;2023-03-14T00:19:34;98826.00;;;16.60
71564;BMP180;59391;52.504;13.438;2023-03-14T00:22:00;98818.00;;;16.50
71564;BMP180;59391;52.504;13.438;2023-03-14T00:24:25;98819.00;;;16.50
71564;BMP180;59391;52.504;13.438;2023-03-14T00:26:51;98806.00;;;16.50
71564;BMP180;59391;52.504;13.438;2023-03-14T00:29:17;98793.00;;;16.50
71564;BMP180;59391;52.504;13.438;2023-03-14T00:31:42;98795.00;;;16.50
71564;BMP180;59391;52.504;13.438;2023-03-14T00:34:08;98777.00;;;16.50
71564;BMP180;59391;52.504;13.438;2023-03-14T00:36:33;98783.00;;;16.40
71564;BMP180;59391;52.504;13.438;2023-03-14T00:38:59;98781.00;;;16.40
71564;BMP180;59391;52.504;13.438;2023-03-14T00:41:25;98770.00;;;16.30
71564;BMP180;59391;52.504;13.438;2023-03-14T00:43:51;98764.00;;;16.30
71564;BMP180;59391;52.504;13.438;2023-03-14T00:46:18;98783.00;;;16.30
71564;BMP180;59391;52.504;13.438;2023-03-14T00:48:47;98793.00;;;16.30
71564;BMP180;59391;52.504;13.438;2023-03-14T00:51:13;98785.00;;;16.30
71564;BMP180;59391;52.504;13.438;2023-03-14T00:53:41;98774.00;;;16.20
71564;BMP180;59391;52.504;13.438;2023-03-14T00:56:10;98772.00;;;16.10
71564;BMP180;59391;52.504;13.438;2023-03-14T00:58:36;98765.00;;;16.10
71564;BMP180;59391;52.504;13.438;2023-03-14T01:01:12;98753.00;;;16.10
71564;BMP180;59391;52.504;13.438;2023-03-14T01:03:38;98753.00;;;15.90
71564;BMP180;59391;52.504;13.438;2023-03-14T01:06:17;98742.00;;;16.00
71564;BMP180;59391;52.504;13.438;2023-03-14T01:08:45;98735.00;;;15.90
71564;BMP180;59391;52.504;13.438;2023-03-14T01:11:34;98729.00;;;15.80
71564;BMP180;59391;52.504;13.438;2023-03-14T01:14:00;98740.00;;;15.90
71564;BMP180;59391;52.504;13.438;2023-03-14T01:16:29;98734.00;;;15.90
71564;BMP180;59391;52.504;13.438;2023-03-14T01:18:55;98741.00;;;15.90
71564;BMP180;59391;52.504;13.438;2023-03-14T01:21:24;98763.00;;;15.70
71564;BMP180;59391;52.504;13.438;2023-03-14T01:23:52;98779.00;;;15.80
71564;BMP180;59391;52.504;13.438;2023-03-14T01:26:22;98798.00;;;15.70
71564;BMP180;59391;52.504;13.438;2023-03-14T01:28:49;98814.00;;;15.70
71564;BMP180;59391;52.504;13.438;2023-03-14T01:31:16;98804.00;;;15.70
71564;BMP180;59391;52.504;13.438;2023-03-14T01:33:42;98805.00;;;15.80
71564;BMP180;59391;52.504;13.438;2023-03-14T01:36:09;98816.00;;;15.60
71564;BMP180;59391;52.504;13.438;2023-03-14T01:38:37;98816.00;;;15.50
71564;BMP180;59391;52.504;13.438;2023-03-14T01:41:03;98817.00;;;15.50
71564;BMP180;59391;52.504;13.438;2023-03-14T01:43:30;98821.00;;;15.60
71564;BMP180;59391;52.504;13.438;2023-03-14T01:52:02;98833.00;;;15.60
71564;BMP180;59391;52.504;13.438;2023-03-14T01:54:38;98841.00;;;15.50
71564;BMP180;59391;52.504;13.438;2023-03-14T01:59:34;98828.00;;;15.60
71564;BMP180;59391;52.504;13.438;2023-03-14T02:02:02;98817.00;;;15.70
71564;BMP180;59391;52.504;13.438;2023-03-14T02:04:34;98815.00;;;15.60
71564;BMP180;59391;52.504;13.438;2023-03-14T02:07:12;98810.00;;;15.50
71564;BMP180;59391;52.504;13.438;2023-03-14T02:09:40;98795.00;;;15.60
71564;BMP180;59391;52.504;13.438;2023-03-14T02:12:09;98797.00;;;15.50
71564;BMP180;59391;52.504;13.438;2023-03-14T02:14:37;98798.00;;;15.60
71564;BMP180;59391;52.504;13.438;2023-03-14T02:17:06;98795.00;;;15.60
71564;BMP180;59391;52.504;13.438;2023-03-14T02:19:50;98780.00;;;15.50
71564;BMP180;59391;52.504;13.438;2023-03-14T02:22:19;98780.00;;;15.20
71564;BMP180;59391;52.504;13.438;2023-03-14T02:25:08;98774.00;;;15.40
71564;BMP180;59391;52.504;13.438;2023-03-14T02:27:36;98779.00;;;15.50
71564;BMP180;59391;52.504;13.438;2023-03-14T02:30:18;98780.00;;;15.50
71564;BMP180;59391;52.504;13.438;2023-03-14T02:32:49;98791.00;;;15.40
71564;BMP180;59391;52.504;13.438;2023-03-14T02:35:25;98771.00;;;15.60
71564;BMP180;59391;52.504;13.438;2023-03-14T02:38:03;98775.00;;;15.50
71564;BMP180;59391;52.504;13.438;2023-03-14T02:40:32;98769.00;;;15.60
71564;BMP180;59391;52.504;13.438;2023-03-14T02:42:58;98774.00;;;15.50
71564;BMP180;59391;52.504;13.438;2023-03-14T02:45:33;98776.00;;;15.50
71564;BMP180;59391;52.504;13.438;2023-03-14T02:48:19;98773.00;;;15.40
71564;BMP180;59391;52.504;13.438;2023-03-14T02:50:48;98766.00;;;15.50
71564;BMP180;59391;52.504;13.438;2023-03-14T02:53:19;98755.00;;;15.40
71564;BMP180;59391;52.504;13.438;2023-03-14T02:55:48;98752.00;;;15.40
71564;BMP180;59391;52.504;13.438;2023-03-14T02:58:14;98738.00;;;15.50
71564;BMP180;59391;52.504;13.438;2023-03-14T03:00:40;98733.00;;;15.50
71564;BMP180;59391;52.504;13.438;2023-03-14T03:03:05;98728.00;;;15.50
71564;BMP180;59391;52.504;13.438;2023-03-14T03:05:32;98726.00;;;15.40
71564;BMP180;59391;52.504;13.438;2023-03-14T03:07:57;98722.00;;;15.50
71564;BMP180;59391;52.504;13.438;2023-03-14T03:10:23;98709.00;;;15.50
71564;BMP180;59391;52.504;13.438;2023-03-14T03:12:49;98694.00;;;15.50
71564;BMP180;59391;52.504;13.438;2023-03-14T03:15:15;98689.00;;;15.30
71564;BMP180;59391;52.504;13.438;2023-03-14T03:17:40;98679.00;;;15.40
71564;BMP180;59391;52.504;13.438;2023-03-14T03:20:07;98674.00;;;15.50
71564;BMP180;59391;52.504;13.438;2023-03-14T03:22:36;98670.00;;;15.60
71564;BMP180;59391;52.504;13.438;2023-03-14T03:25:04;98668.00;;;15.60
71564;BMP180;59391;52.504;13.438;2023-03-14T03:27:31;98677.00;;;15.60
71564;BMP180;59391;52.504;13.438;2023-03-14T03:29:57;98693.00;;;15.50
71564;BMP180;59391;52.504;13.438;2023-03-14T03:32:23;98696.00;;;15.40
71564;BMP180;59391;52.504;13.438;2023-03-14T03:34:49;98711.00;;;15.40
71564;BMP180;59391;52.504;13.438;2023-03-14T03:37:14;98701.00;;;15.20
71564;BMP180;59391;52.504;13.438;2023-03-14T03:39:40;98717.00;;;15.40
71564;BMP180;59391;52.504;13.438;2023-03-14T03:42:06;98712.00;;;15.40
71564;BMP180;59391;52.504;13.438;2023-03-14T03:44:31;98706.00;;;15.30
71564;BMP180;59391;52.504;13.438;2023-03-14T03:46:57;98706.00;;;15.30
71564;BMP180;59391;52.504;13.438;2023-03-14T03:49:23;98700.00;;;15.20
71564;BMP180;59391;52.504;13.438;2023-03-14T03:51:48;98697.00;;;15.20
71564;BMP180;59391;52.504;13.438;2023-03-14T03:54:14;98679.00;;;15.20
71564;BMP180;59391;52.504;13.438;2023-03-14T03:56:39;98692.00;;;15.20
71564;BMP180;59391;52.504;13.438;2023-03-14T03:59:05;98690.00;;;15.20
71564;BMP180;59391;52.504;13.438;2023-03-14T04:01:31;98683.00;;;15.20
71564;BMP180;59391;52.504;13.438;2023-03-14T04:03:56;98692.00;;;15.20
71564;BMP180;59391;52.504;13.438;2023-03-14T04:06:22;98690.00;;;15.20
71564;BMP180;59391;52.504;13.438;2023-03-14T04:08:47;98700.00;;;15.10
71564;BMP180;59391;52.504;13.438;2023-03-14T04:11:13;98677.00;;;15.20
71564;BMP180;59391;52.504;13.438;2023-03-14T04:13:39;98674.00;;;15.10
71564;BMP180;59391;52.504;13.438;2023-03-14T04:16:15;98685.00;;;15.10
71564;BMP180;59391;52.504;13.438;2023-03-14T04:18:41;98679.00;;;15.10
71564;BMP180;59391;52.504;13.438;2023-03-14T04:21:07;98691.00;;;15.10
71564;BMP180;59391;52.504;13.438;2023-03-14T04:23:32;98675.00;;;15.00
71564;BMP180;59391;52.504;13.438;2023-03-14T04:25:59;98676.00;;;15.10
71564;BMP180;59391;52.504;13.438;2023-03-14T04:28:24;98669.00;;;15.10
71564;BMP180;59391;52.504;13.438;2023-03-14T04:30:50;98682.00;;;14.90
71564;BMP180;59391;52.504;13.438;2023-03-14T04:33:16;98671.00;;;15.10
71564;BMP180;59391;52.504;13.438;2023-03-14T04:35:45;98670.00;;;15.10
71564;BMP180;59391;52.504;13.438;2023-03-14T04:38:12;98663.00;;;15.00
71564;BMP180;59391;52.504;13.438;2023-03-14T04:40:40;98655.00;;;15.00
71564;BMP180;59391;52.504;13.438;2023-03-14T04:43:07;98658.00;;;15.10
71564;BMP180;59391;52.504;13.438;2023-03-14T04:45:33;98655.00;;;15.10
71564;BMP180;59391;52.504;13.438;2023-03-14T04:47:59;98648.00;;;15.00
71564;BMP180;59391;52.504;13.438;2023-03-14T04:50:24;98652.00;;;15.10
71564;BMP180;59391;52.504;13.438;2023-03-14T04:52:50;98634.00;;;15.00
71564;BMP180;59391;52.504;13.438;2023-03-14T04:55:16;98638.00;;;15.20
71564;BMP180;59391;52.504;13.438;2023-03-14T04:57:41;98625.00;;;15.00
71564;BMP180;59391;52.504;13.438;2023-03-14T05:00:08;98620.00;;;15.00
71564;BMP180;59391;52.504;13.438;2023-03-14T05:02:35;98613.00;;;15.10
71564;BMP180;59391;52.504;13.438;2023-03-14T05:05:00;98632.00;;;15.10
71564;BMP180;59391;52.504;13.438;2023-03-14T05:07:26;98636.00;;;15.10
71564;BMP180;59391;52.504;13.438;2023-03-14T05:09:52;98633.00;;;15.20
71564;BMP180;59391;52.504;13.438;2023-03-14T05:12:19;98633.00;;;15.20
71564;BMP180;59391;52.504;13.438;2023-03-14T05:14:45;98641.00;;;15.20
71564;BMP180;59391;52.504;13.438;2023-03-14T05:17:11;98650.00;;;15.10
71564;BMP180;59391;52.504;13.438;2023-03-14T05:19:40;98633.00;;;15.00
71564;BMP180;59391;52.504;13.438;2023-03-14T05:22:06;98626.00;;;15.20
71564;BMP180;59391;52.504;13.438;2023-03-14T05:24:32;98619.00;;;15.00
71564;BMP180;59391;52.504;13.438;2023-03-14T05:26:58;98597.00;;;15.10
71564;BMP180;59391;52.504;13.438;2023-03-14T05:29:24;98607.00;;;15.10
71564;BMP180;59391;52.504;13.438;2023-03-14T05:31:50;98603.00;;;15.10
71564;BMP180;59391;52.504;13.438;2023-03-14T05:34:15;98608.00;;;15.20
71564;BMP180;59391;52.504;13.438;2023-03-14T05:36:41;98598.00;;;15.10
71564;BMP180;59391;52.504;13.438;2023-03-14T05:39:06;98608.00;;;15.10
71564;BMP180;59391;52.504;13.438;2023-03-14T05:41:32;98594.00;;;15.00
71564;BMP180;59391;52.504;13.438;2023-03-14T05:43:58;98607.00;;;15.10
71564;BMP180;59391;52.504;13.438;2023-03-14T05:46:23;98613.00;;;15.10
71564;BMP180;59391;52.504;13.438;2023-03-14T05:48:49;98621.00;;;15.10
71564;BMP180;59391;52.504;13.438;2023-03-14T05:51:15;98621.00;;;15.00
71564;BMP180;59391;52.504;13.438;2023-03-14T05:53:40;98628.00;;;15.00
71564;BMP180;59391;52.504;13.438;2023-03-14T05:56:07;98628.00;;;15.10
71564;BMP180;59391;52.504;13.438;2023-03-14T05:58:33;98617.00;;;15.10
71564;BMP180;59391;52.504;13.438;2023-03-14T06:01:04;98596.00;;;15.10
71564;BMP180;59391;52.504;13.438;2023-03-14T06:03:31;98612.00;;;15.10
71564;BMP180;59391;52.504;13.438;2023-03-14T06:05:57;98609.00;;;15.10
71564;BMP180;59391;52.504;13.438;2023-03-14T06:08:23;98614.00;;;15.00
71564;BMP180;59391;52.504;13.438;2023-03-14T06:10:49;98605.00;;;15.10
71564;BMP180;59391;52.504;13.438;2023-03-14T06:13:14;98601.00;;;15.10
71564;BMP180;59391;52.504;13.438;2023-03-14T06:15:41;98611.00;;;15.20
71564;BMP180;59391;52.504;13.438;2023-03-14T06:18:07;98607.00;;;15.20
71564;BMP180;59391;52.504;13.438;2023-03-14T06:20:35;98608.00;;;15.20
71564;BMP180;59391;52.504;13.438;2023-03-14T06:23:01;98607.00;;;15.00
71564;BMP180;59391;52.504;13.438;2023-03-14T06:25:27;98622.00;;;15.10
71564;BMP180;59391;52.504;13.438;2023-03-14T06:27:52;98622.00;;;15.10
71564;BMP180;59391;52.504;13.438;2023-03-14T06:30:18;98611.00;;;15.10
71564;BMP180;59391;52.504;13.438;2023-03-14T06:32:44;98603.00;;;15.20
71564;BMP180;59391;52.504;13.438;2023-03-14T06:35:10;98619.00;;;15.00
71564;BMP180;59391;52.504;13.438;2023-03-14T06:37:35;98620.00;;;15.00
71564;BMP180;59391;52.504;13.438;2023-03-14T06:40:01;98610.00;;;15.20
71564;BMP180;59391;52.504;13.438;2023-03-14T06:42:26;98615.00;;;15.10
71564;BMP180;59391;52.504;13.438;2023-03-14T06:44:52;98634.00;;;15.30
71564;BMP180;59391;52.504;13.438;2023-03-14T06:47:18;98611.00;;;15.10
71564;BMP180;59391;52.504;13.438;2023-03-14T06:49:43;98627.00;;;15.30
71564;BMP180;59391;52.504;13.438;2023-03-14T06:52:09;98637.00;;;15.40
71564;BMP180;59391;52.504;13.438;2023-03-14T06:54:34;98643.00;;;15.40
71564;BMP180;59391;52.504;13.438;2023-03-14T06:57:00;98659.00;;;15.10
71564;BMP180;59391;52.504;13.438;2023-03-14T06:59:26;98651.00;;;15.50
71564;BMP180;59391;52.504;13.438;2023-03-14T07:01:51;98653.00;;;15.30
71564;BMP180;59391;52.504;13.438;2023-03-14T07:04:17;98641.00;;;15.50
71564;BMP180;59391;52.504;13.438;2023-03-14T07:06:43;98659.00;;;15.50
71564;BMP180;59391;52.504;13.438;2023-03-14T07:09:14;98656.00;;;15.40
71564;BMP180;59391;52.504;13.438;2023-03-14T07:11:40;98661.00;;;15.50
71564;BMP180;59391;52.504;13.438;2023-03-14T07:14:05;98666.00;;;15.50
71564;BMP180;59391;52.504;13.438;2023-03-14T07:16:31;98649.00;;;15.50
71564;BMP180;59391;52.504;13.438;2023-03-14T07:18:59;98668.00;;;15.50
71564;BMP180;59391;52.504;13.438;2023-03-14T07:21:25;98668.00;;;15.60
71564;BMP180;59391;52.504;13.438;2023-03-14T07:23:51;98669.00;;;15.70
71564;BMP180;59391;52.504;13.438;2023-03-14T07:26:16;98665.00;;;15.70
71564;BMP180;59391;52.504;13.438;2023-03-14T07:28:42;98676.00;;;15.70
71564;BMP180;59391;52.504;13.438;2023-03-14T07:31:08;98674.00;;;15.70
71564;BMP180;59391;52.504;13.438;2023-03-14T07:33:34;98667.00;;;15.80
71564;BMP180;59391;52.504;13.438;2023-03-14T07:36:00;98669.00;;;15.80
71564;BMP180;59391;52.504;13.438;2023-03-14T07:38:26;98683.00;;;15.80
71564;BMP180;59391;52.504;13.438;2023-03-14T07:40:59;98668.00;;;15.70
71564;BMP180;59391;52.504;13.438;2023-03-14T07:43:25;98674.00;;;15.70
71564;BMP180;59391;52.504;13.438;2023-03-14T07:45:51;98686.00;;;15.70
71564;BMP180;59391;52.504;13.438;2023-03-14T07:48:16;98688.00;;;15.70
71564;BMP180;59391;52.504;13.438;2023-03-14T07:50:42;98678.00;;;15.70
71564;BMP180;59391;52.504;13.438;2023-03-14T07:53:08;98679.00;;;15.70
71564;BMP180;59391;52.504;13.438;2023-03-14T07:55:34;98679.00;;;15.70
71564;BMP180;59391;52.504;13.438;2023-03-14T07:58:00;98676.00;;;15.70
71564;BMP180;59391;52.504;13.438;2023-03-14T08:00:26;98676.00;;;15.70
71564;BMP180;59391;52.504;13.438;2023-03-14T08:02:51;98679.00;;;15.60
71564;BMP180;59391;52.504;13.438;2023-03-14T08:05:17;98679.00;;;15.70
71564;BMP180;59391;52.504;13.438;2023-03-14T08:07:42;98663.00;;;15.70
71564;BMP180;59391;52.504;13.438;2023-03-14T08:10:09;98664.00;;;15.90
71564;BMP180;59391;52.504;13.438;2023-03-14T08:12:35;98653.00;;;15.90
71564;BMP180;59391;52.504;13.438;2023-03-14T08:15:01;98663.00;;;16.00
71564;BMP180;59391;52.504;13.438;2023-03-14T08:17:27;98654.00;;;15.90
71564;BMP180;59391;52.504;13.438;2023-03-14T08:19:53;98656.00;;;16.10
71564;BMP180;59391;52.504;13.438;2023-03-14T08:22:18;98664.00;;;16.00
71564;BMP180;59391;52.504;13.438;2023-03-14T08:24:44;98646.00;;;16.00
71564;BMP180;59391;52.504;13.438;2023-03-14T08:27:10;98660.00;;;15.90
71564;BMP180;59391;52.504;13.438;2023-03-14T08:29:35;98657.00;;;16.10
71564;BMP180;59391;52.504;13.438;2023-03-14T08:32:01;98661.00;;;16.00
71564;BMP180;59391;52.504;13.438;2023-03-14T08:34:26;98671.00;;;16.10
71564;BMP180;59391;52.504;13.438;2023-03-14T08:36:52;98662.00;;;16.10
71564;BMP180;59391;52.504;13.438;2023-03-14T08:39:18;98670.00;;;16.20
71564;BMP180;59391;52.504;13.438;2023-03-14T08:41:43;98675.00;;;16.10
71564;BMP180;59391;52.504;13.438;2023-03-14T08:44:11;98689.00;;;16.20
71564;BMP180;59391;52.504;13.438;2023-03-14T08:46:39;98675.00;;;16.30
71564;BMP180;59391;52.504;13.438;2023-03-14T08:49:05;98671.00;;;16.40
71564;BMP180;59391;52.504;13.438;2023-03-14T08:51:30;98679.00;;;16.30
71564;BMP180;59391;52.504;13.438;2023-03-14T08:53:56;98680.00;;;16.40
71564;BMP180;59391;52.504;13.438;2023-03-14T08:56:22;98677.00;;;16.40
71564;BMP180;59391;52.504;13.438;2023-03-14T08:58:47;98687.00;;;16.40
71564;BMP180;59391;52.504;13.438;2023-03-14T09:01:13;98673.00;;;16.40
71564;BMP180;59391;52.504;13.438;2023-03-14T09:03:38;98684.00;;;16.50
71564;BMP180;59391;52.504;13.438;2023-03-14T09:06:08;98699.00;;;16.50
71564;BMP180;59391;52.504;13.438;2023-03-14T09:08:34;98682.00;;;16.50
71564;BMP180;59391;52.504;13.438;2023-03-14T09:11:00;98683.00;;;16.60
71564;BMP180;59391;52.504;13.438;2023-03-14T09:13:26;98677.00;;;16.50
71564;BMP180;59391;52.504;13.438;2023-03-14T09:15:54;98675.00;;;16.70
71564;BMP180;59391;52.504;13.438;2023-03-14T09:18:20;98678.00;;;16.90
71564;BMP180;59391;52.504;13.438;2023-03-14T09:20:46;98658.00;;;17.00
71564;BMP180;59391;52.504;13.438;2023-03-14T09:23:12;98660.00;;;17.30
71564;BMP180;59391;52.504;13.438;2023-03-14T09:25:38;98652.00;;;17.60
71564;BMP180;59391;52.504;13.438;2023-03-14T09:28:04;98650.00;;;18.10
71564;BMP180;59391;52.504;13.438;2023-03-14T09:30:30;98653.00;;;18.40
71564;BMP180;59391;52.504;13.438;2023-03-14T09:32:55;98642.00;;;18.70
71564;BMP180;59391;52.504;13.438;2023-03-14T09:35:22;98649.00;;;19.10
71564;BMP180;59391;52.504;13.438;2023-03-14T09:37:48;98651.00;;;19.30
71564;BMP180;59391;52.504;13.438;2023-03-14T09:40:17;98645.00;;;19.30
71564;BMP180;59391;52.504;13.438;2023-03-14T09:42:44;98657.00;;;19.50
71564;BMP180;59391;52.504;13.438;2023-03-14T09:45:18;98647.00;;;19.60
71564;BMP180;59391;52.504;13.438;2023-03-14T09:47:47;98649.00;;;19.40
71564;BMP180;59391;52.504;13.438;2023-03-14T09:50:16;98639.00;;;19.00
71564;BMP180;59391;52.504;13.438;2023-03-14T09:53:15;98657.00;;;18.50
71564;BMP180;59391;52.504;13.438;2023-03-14T09:55:45;98643.00;;;18.20
71564;BMP180;59391;52.504;13.438;2023-03-14T09:58:16;98651.00;;;18.00
71564;BMP180;59391;52.504;13.438;2023-03-14T10:00:42;98661.00;;;18.00
71564;BMP180;59391;52.504;13.438;2023-03-14T10:03:22;98650.00;;;17.80
71564;BMP180;59391;52.504;13.438;2023-03-14T10:05:49;98658.00;;;17.70
71564;BMP180;59391;52.504;13.438;2023-03-14T10:08:15;98661.00;;;17.70
71564;BMP180;59391;52.504;13.438;2023-03-14T10:10:41;98660.00;;;17.70
71564;BMP180;59391;52.504;13.438;2023-03-14T10:15:37;98664.00;;;17.50
71564;BMP180;59391;52.504;13.438;2023-03-14T10:18:10;98664.00;;;17.60
71564;BMP180;59391;52.504;13.438;2023-03-14T10:20:45;98664.00;;;17.50
71564;BMP180;59391;52.504;13.438;2023-03-14T10:25:43;98679.00;;;17.40
71564;BMP180;59391;52.504;13.438;2023-03-14T10:28:26;98673.00;;;17.30
71564;BMP180;59391;52.504;13.438;2023-03-14T10:30:52;98670.00;;;17.10
71564;BMP180;59391;52.504;13.438;2023-03-14T10:35:44;98661.00;;;17.30
71564;BMP180;59391;52.504;13.438;2023-03-14T10:38:16;98676.00;;;17.30
71564;BMP180;59391;52.504;13.438;2023-03-14T10:40:49;98669.00;;;17.30
71564;BMP180;59391;52.504;13.438;2023-03-14T10:43:22;98679.00;;;17.30
71564;BMP180;59391;52.504;13.438;2023-03-14T10:46:08;98661.00;;;17.10
71564;BMP180;59391;52.504;13.438;2023-03-14T10:48:37;98651.00;;;17.10
71564;BMP180;59391;52.504;13.438;2023-03-14T10:53:57;98681.00;;;17.00
71564;BMP180;59391;52.504;13.438;2023-03-14T10:56:25;98677.00;;;17.20
71564;BMP180;59391;52.504;13.438;2023-03-14T10:58:56;98670.00;;;17.10
71564;BMP180;59391;52.504;13.438;2023-03-14T11:01:58;98657.00;;;17.20
71564;BMP180;59391;52.504;13.438;2023-03-14T11:04:53;98674.00;;;17.20
71564;BMP180;59391;52.504;13.438;2023-03-14T11:07:52;98664.00;;;17.20
71564;BMP180;59391;52.504;13.438;2023-03-14T11:10:34;98665.00;;;17.30
71564;BMP180;59391;52.504;13.438;2023-03-14T11:18:51;98672.00;;;17.30
71564;BMP180;59391;52.504;13.438;2023-03-14T11:21:37;98659.00;;;17.20
71564;BMP180;59391;52.504;13.438;2023-03-14T11:27:21;98670.00;;;17.10
71564;BMP180;59391;52.504;13.438;2023-03-14T11:30:00;98678.00;;;17.10
71564;BMP180;59391;52.504;13.438;2023-03-14T11:33:04;98659.00;;;17.20
71564;BMP180;59391;52.504;13.438;2023-03-14T11:38:34;98666.00;;;17.20
71564;BMP180;59391;52.504;13.438;2023-03-14T11:41:10;98678.00;;;17.10
71564;BMP180;59391;52.504;13.438;2023-03-14T11:43:47;98679.00;;;17.00
71564;BMP180;59391;52.504;13.438;2023-03-14T11:46:21;98664.00;;;17.20
71564;BMP180;59391;52.504;13.438;2023-03-14T11:51:46;98672.00;;;17.10
71564;BMP180;59391;52.504;13.438;2023-03-14T11:54:53;98684.00;;;16.60
71564;BMP180;59391;52.504;13.438;2023-03-14T11:57:22;98664.00;;;16.70
71564;BMP180;59391;52.504;13.438;2023-03-14T12:00:19;98649.00;;;16.80
71564;BMP180;59391;52.504;13.438;2023-03-14T12:03:19;98659.00;;;16.70
71564;BMP180;59391;52.504;13.438;2023-03-14T12:06:15;98659.00;;;16.70
71564;BMP180;59391;52.504;13.438;2023-03-14T12:08:50;98642.00;;;16.80
71564;BMP180;59391;52.504;13.438;2023-03-14T12:11:47;98659.00;;;16.90
71564;BMP180;59391;52.504;13.438;2023-03-14T12:14:30;98664.00;;;16.60
71564;BMP180;59391;52.504;13.438;2023-03-14T12:17:17;98635.00;;;16.90
71564;BMP180;59391;52.504;13.438;2023-03-14T12:19:44;98652.00;;;17.10
71564;BMP180;59391;52.504;13.438;2023-03-14T12:22:23;98673.00;;;17.10
71564;BMP180;59391;52.504;13.438;2023-03-14T12:24:56;98658.00;;;17.10
71564;BMP180;59391;52.504;13.438;2023-03-14T12:30:37;98639.00;;;17.20
71564;BMP180;59391;52.504;13.438;2023-03-14T12:35:41;98618.00;;;17.30
71564;BMP180;59391;52.504;13.438;2023-03-14T12:41:20;98632.00;;;17.30
71564;BMP180;59391;52.504;13.438;2023-03-14T12:43:49;98637.00;;;17.30
71564;BMP180;59391;52.504;13.438;2023-03-14T12:49:08;98616.00;;;17.10
71564;BMP180;59391;52.504;13.438;2023-03-14T12:51:39;98599.00;;;17.30
71564;BMP180;59391;52.504;13.438;2023-03-14T12:54:27;98633.00;;;17.30
71564;BMP180;59391;52.504;13.438;2023-03-14T12:59:57;98595.00;;;17.30
71564;BMP180;59391;52.504;13.438;2023-03-14T13:02:27;98615.00;;;17.40
71564;BMP180;59391;52.504;13.438;2023-03-14T13:05:05;98619.00;;;17.40
71564;BMP180;59391;52.504;13.438;2023-03-14T13:10:30;98617.00;;;17.00
71564;BMP180;59391;52.504;13.438;2023-03-14T13:13:24;98640.00;;;16.80
71564;BMP180;59391;52.504;13.438;2023-03-14T13:15:57;98640.00;;;16.50
71564;BMP180;59391;52.504;13.438;2023-03-14T13:18:38;98645.00;;;16.10
71564;BMP180;59391;52.504;13.438;2023-03-14T13:21:18;98596.00;;;15.90
71564;BMP180;59391;52.504;13.438;2023-03-14T13:24:40;98632.00;;;15.60
71564;BMP180;59391;52.504;13.438;2023-03-14T13:27:18;98632.00;;;15.40
71564;BMP180;59391;52.504;13.438;2023-03-14T13:29:49;98626.00;;;15.20
71564;BMP180;59391;52.504;13.438;2023-03-14T13:32:27;98616.00;;;15.30
71564;BMP180;59391;52.504;13.438;2023-03-14T13:34:59;98601.00;;;15.50
71564;BMP180;59391;52.504;13.438;2023-03-14T13:37:26;98605.00;;;15.90
71564;BMP180;59391;52.504;13.438;2023-03-14T13:39:56;98584.00;;;16.80
71564;BMP180;59391;52.504;13.438;2023-03-14T13:42:27;98567.00;;;17.80
71564;BMP180;59391;52.504;13.438;2023-03-14T13:44:56;98580.00;;;18.70
71564;BMP180;59391;52.504;13.438;2023-03-14T13:47:24;98588.00;;;19.60
71564;BMP180;59391;52.504;13.438;2023-03-14T13:49:52;98569.00;;;20.00
71564;BMP180;59391;52.504;13.438;2023-03-14T13:52:35;98585.00;;;20.10
71564;BMP180;59391;52.504;13.438;2023-03-14T13:55:04;98578.00;;;20.40
71564;BMP180;59391;52.504;13.438;2023-03-14T13:57:52;98603.00;;;20.50
71564;BMP180;59391;52.504;13.438;2023-03-14T14:00:26;98589.00;;;20.40
71564;BMP180;59391;52.504;13.438;2023-03-14T14:02:54;98591.00;;;20.40
71564;BMP180;59391;52.504;13.438;2023-03-14T14:05:22;98589.00;;;20.20
71564;BMP180;59391;52.504;13.438;2023-03-14T14:07:49;98586.00;;;20.10
71564;BMP180;59391;52.504;13.438;2023-03-14T14:10:16;98593.00;;;20.50
71564;BMP180;59391;52.504;13.438;2023-03-14T14:12:57;98581.00;;;20.80
71564;BMP180;59391;52.504;13.438;2023-03-14T14:15:32;98581.00;;;20.90
71564;BMP180;59391;52.504;13.438;2023-03-14T14:18:11;98573.00;;;21.20
71564;BMP180;59391;52.504;13.438;2023-03-14T14:20:42;98551.00;;;21.40
71564;BMP180;59391;52.504;13.438;2023-03-14T14:23:30;98556.00;;;21.80
71564;BMP180;59391;52.504;13.438;2023-03-14T14:25:58;98534.00;;;22.20
71564;BMP180;59391;52.504;13.438;2023-03-14T14:28:32;98556.00;;;22.40
71564;BMP180;59391;52.504;13.438;2023-03-14T14:31:21;98564.00;;;22.20
71564;BMP180;59391;52.504;13.438;2023-03-14T14:34:00;98562.00;;;21.80
71564;BMP180;59391;52.504;13.438;2023-03-14T14:36:39;98564.00;;;21.00
71564;BMP180;59391;52.504;13.438;2023-03-14T14:39:23;98554.00;;;20.30
71564;BMP180;59391;52.504;13.438;2023-03-14T14:41:51;98568.00;;;20.00
71564;BMP180;59391;52.504;13.438;2023-03-14T14:44:29;98568.00;;;19.80
71564;BMP180;59391;52.504;13.438;2023-03-14T14:46:58;98561.00;;;19.70
71564;BMP180;59391;52.504;13.438;2023-03-14T14:49:30;98544.00;;;19.60
71564;BMP180;59391;52.504;13.438;2023-03-14T14:52:13;98565.00;;;19.40
71564;BMP180;59391;52.504;13.438;2023-03-14T14:54:44;98581.00;;;19.10
71564;BMP180;59391;52.504;13.438;2023-03-14T14:57:24;98580.00;;;18.90
71564;BMP180;59391;52.504;13.438;2023-03-14T14:59:51;98572.00;;;18.70
71564;BMP180;59391;52.504;13.438;2023-03-14T15:02:47;98563.00;;;18.70